createdAt,value
2023-01-11T00:00:44.461Z,100877.06
2023-01-11T00:03:11.024Z,100862.78
2023-01-11T00:05:38.979Z,100863.50
2023-01-11T00:08:07.992Z,100853.97
2023-01-11T00:10:35.100Z,100853.28
2023-01-11T00:13:01.814Z,100848.41
2023-01-11T00:15:28.468Z,100851.19
2023-01-11T00:17:54.965Z,100849.91
2023-01-11T00:20:21.524Z,100847.81
2023-01-11T00:22:48.168Z,100851.31
2023-01-11T00:25:14.674Z,100855.25
2023-01-11T00:27:41.195Z,100845.97
2023-01-11T00:30:08.059Z,100845.25
2023-01-11T00:32:34.579Z,100826.22
2023-01-11T00:35:01.196Z,100833.88
2023-01-11T00:37:27.725Z,100824.59
2023-01-11T00:39:54.269Z,100824.50
2023-01-11T00:42:39.347Z,100827.16
2023-01-11T00:45:24.923Z,100804.84
2023-01-11T00:47:57.197Z,100797.09
2023-01-11T00:50:24.682Z,100797.19
2023-01-11T00:52:51.361Z,100784.97
2023-01-11T00:55:17.856Z,100786.06
2023-01-11T00:57:44.384Z,100782.31
2023-01-11T01:00:11.244Z,100776.84
2023-01-11T01:02:37.944Z,100767.78
2023-01-11T01:05:04.700Z,100769.88
2023-01-11T01:07:31.173Z,100768.88
2023-01-11T01:09:57.942Z,100765.13
2023-01-11T01:12:43.034Z,100765.84
2023-01-11T01:15:09.977Z,100767.44
2023-01-11T01:17:36.543Z,100763.84
2023-01-11T01:20:03.474Z,100761.53
2023-01-11T01:22:30.030Z,100763.47
2023-01-11T01:24:56.572Z,100763.03
2023-01-11T01:27:23.078Z,100759.56
2023-01-11T01:29:49.716Z,100763.84
2023-01-11T01:32:16.564Z,100761.31
2023-01-11T01:34:43.124Z,100753.16
2023-01-11T01:37:10.599Z,100760.50
2023-01-11T01:39:37.125Z,100756.03
2023-01-11T01:42:04.133Z,100749.19
2023-01-11T01:44:48.976Z,100763.13
2023-01-11T01:47:15.872Z,100760.09
2023-01-11T01:49:43.471Z,100758.47
2023-01-11T01:52:10.477Z,100745.69
2023-01-11T01:54:39.480Z,100749.97
2023-01-11T01:57:09.538Z,100753.00
2023-01-11T01:59:36.286Z,100763.81
2023-01-11T02:02:02.935Z,100763.34
2023-01-11T02:04:35.617Z,100763.81
2023-01-11T02:07:04.317Z,100770.78
2023-01-11T02:09:49.536Z,100759.41
2023-01-11T02:12:16.400Z,100758.16
2023-01-11T02:14:43.757Z,100743.19
2023-01-11T02:17:10.711Z,100757.25
2023-01-11T02:19:44.454Z,100759.66
2023-01-11T02:22:14.065Z,100745.06
2023-01-11T02:24:44.330Z,100740.38
2023-01-11T02:27:23.197Z,100746.78
2023-01-11T02:29:49.699Z,100743.41
2023-01-11T02:32:26.155Z,100732.28
2023-01-11T02:34:58.685Z,100736.44
2023-01-11T02:37:34.268Z,100725.06
2023-01-11T02:40:21.247Z,100730.53
2023-01-11T02:43:23.916Z,100719.13
2023-01-11T02:45:54.339Z,100721.31
2023-01-11T02:48:32.240Z,100725.28
2023-01-11T02:51:07.762Z,100714.38
2023-01-11T02:53:37.428Z,100710.63
2023-01-11T02:56:07.313Z,100710.53
2023-01-11T02:58:36.204Z,100716.91
2023-01-11T03:01:03.976Z,100703.91
2023-01-11T03:03:30.635Z,100696.13
2023-01-11T03:06:03.143Z,100686.97
2023-01-11T03:08:35.342Z,100694.97
2023-01-11T03:11:10.186Z,100697.41
2023-01-11T03:13:45.956Z,100693.38
2023-01-11T03:16:24.523Z,100689.25
2023-01-11T03:19:06.326Z,100694.75
2023-01-11T03:21:48.886Z,100697.19
2023-01-11T03:24:37.532Z,100690.31
2023-01-11T03:27:30.500Z,100699.94
2023-01-11T03:30:06.649Z,100698.19
2023-01-11T03:32:47.200Z,100697.13
2023-01-11T03:35:13.777Z,100705.50
2023-01-11T03:38:00.511Z,100694.16
2023-01-11T03:40:29.729Z,100685.66
2023-01-11T03:43:10.843Z,100682.03
2023-01-11T03:45:40.103Z,100676.34
2023-01-11T03:48:09.919Z,100682.50
2023-01-11T03:50:36.390Z,100672.13
2023-01-11T03:53:06.165Z,100667.63
2023-01-11T03:55:37.338Z,100668.59
2023-01-11T03:58:04.059Z,100659.41
2023-01-11T04:00:31.244Z,100662.16
2023-01-11T04:02:59.521Z,100649.31
2023-01-11T04:05:26.010Z,100651.06
2023-01-11T04:07:53.120Z,100649.09
2023-01-11T04:10:19.616Z,100644.72
2023-01-11T04:12:47.748Z,100642.97
2023-01-11T04:15:15.148Z,100639.19
2023-01-11T04:17:42.088Z,100627.16
2023-01-11T04:20:09.417Z,100624.56
2023-01-11T04:22:36.233Z,100626.03
2023-01-11T04:25:02.978Z,100617.91
2023-01-11T04:27:29.540Z,100622.47
2023-01-11T04:29:56.010Z,100621.34
2023-01-11T04:32:22.516Z,100614.09
2023-01-11T04:34:50.529Z,100614.44
2023-01-11T04:37:17.367Z,100606.59
2023-01-11T04:39:44.349Z,100604.31
2023-01-11T04:42:21.621Z,100604.06
2023-01-11T04:44:49.792Z,100598.81
2023-01-11T04:47:17.049Z,100588.34
2023-01-11T04:49:44.004Z,100598.56
2023-01-11T04:52:11.729Z,100599.59
2023-01-11T04:54:38.609Z,100590.97
2023-01-11T04:57:05.951Z,100600.69
2023-01-11T04:59:32.664Z,100599.63
2023-01-11T05:01:59.881Z,100593.00
2023-01-11T05:04:26.545Z,100594.28
2023-01-11T05:06:53.389Z,100592.00
2023-01-11T05:09:20.639Z,100598.97
2023-01-11T05:11:47.375Z,100601.72
2023-01-11T05:14:15.490Z,100591.44
2023-01-11T05:16:42.621Z,100593.06
2023-01-11T05:19:10.320Z,100583.09
2023-01-11T05:21:39.273Z,100604.78
2023-01-11T05:24:07.323Z,100598.06
2023-01-11T05:26:35.082Z,100593.00
2023-01-11T05:29:02.988Z,100595.97
2023-01-11T05:31:31.297Z,100596.78
2023-01-11T05:33:58.598Z,100589.59
2023-01-11T05:36:26.930Z,100597.84
2023-01-11T05:38:54.497Z,100588.28
2023-01-11T05:41:21.888Z,100584.47
2023-01-11T05:44:07.917Z,100583.91
2023-01-11T05:46:35.229Z,100573.38
2023-01-11T05:49:01.938Z,100579.19
2023-01-11T05:51:32.820Z,100563.03
2023-01-11T05:53:59.907Z,100567.38
2023-01-11T05:56:27.377Z,100560.38
2023-01-11T05:58:53.998Z,100562.38
2023-01-11T06:01:21.878Z,100548.59
2023-01-11T06:03:48.497Z,100544.72
2023-01-11T06:06:16.158Z,100544.41
2023-01-11T06:08:42.782Z,100543.09
2023-01-11T06:11:09.472Z,100529.50
2023-01-11T06:13:36.576Z,100539.13
2023-01-11T06:16:07.997Z,100527.88
2023-01-11T06:18:36.540Z,100534.59
2023-01-11T06:21:04.213Z,100526.31
2023-01-11T06:23:31.751Z,100518.63
2023-01-11T06:26:02.593Z,100525.28
2023-01-11T06:28:29.755Z,100511.94
2023-01-11T06:30:57.343Z,100509.88
2023-01-11T06:33:24.707Z,100508.94
2023-01-11T06:35:51.977Z,100509.66
2023-01-11T06:38:19.205Z,100506.47
2023-01-11T06:40:51.676Z,100500.16
2023-01-11T06:43:18.213Z,100491.72
2023-01-11T06:45:44.854Z,100492.41
2023-01-11T06:48:11.390Z,100500.31
2023-01-11T06:50:38.055Z,100501.47
2023-01-11T06:53:04.619Z,100497.50
2023-01-11T06:55:31.972Z,100502.13
2023-01-11T06:57:58.597Z,100496.28
2023-01-11T07:00:25.268Z,100496.13
2023-01-11T07:02:51.978Z,100490.78
2023-01-11T07:05:19.479Z,100487.69
2023-01-11T07:07:46.246Z,100494.34
2023-01-11T07:10:14.140Z,100499.03
2023-01-11T07:12:40.635Z,100498.59
2023-01-11T07:15:08.458Z,100485.72
2023-01-11T07:17:35.039Z,100482.16
2023-01-11T07:20:01.913Z,100485.72
2023-01-11T07:22:28.685Z,100483.66
2023-01-11T07:24:55.358Z,100477.75
2023-01-11T07:27:21.972Z,100471.94
2023-01-11T07:29:48.564Z,100478.41
2023-01-11T07:32:15.251Z,100471.50
2023-01-11T07:34:41.747Z,100476.06
2023-01-11T07:37:28.205Z,100482.13
2023-01-11T07:39:55.758Z,100478.97
2023-01-11T07:42:40.950Z,100481.00
2023-01-11T07:45:07.816Z,100480.84
2023-01-11T07:47:34.557Z,100475.31
2023-01-11T07:50:01.149Z,100484.06
2023-01-11T07:52:27.767Z,100482.00
2023-01-11T07:54:54.329Z,100482.75
2023-01-11T07:57:22.895Z,100488.97
2023-01-11T07:59:49.463Z,100482.91
2023-01-11T08:02:16.129Z,100484.00
2023-01-11T08:04:42.927Z,100481.22
2023-01-11T08:07:09.590Z,100483.44
2023-01-11T08:09:36.149Z,100489.25
2023-01-11T08:12:21.301Z,100490.84
2023-01-11T08:14:47.752Z,100500.97
2023-01-11T08:17:15.906Z,100492.47
2023-01-11T08:19:43.180Z,100489.72
2023-01-11T08:22:10.626Z,100487.03
2023-01-11T08:24:37.255Z,100489.84
2023-01-11T08:27:04.520Z,100478.41
2023-01-11T08:29:31.348Z,100480.13
2023-01-11T08:31:59.452Z,100481.25
2023-01-11T08:34:28.970Z,100484.00
2023-01-11T08:37:01.842Z,100483.94
2023-01-11T08:39:31.061Z,100473.44
2023-01-11T08:42:01.229Z,100487.13
2023-01-11T08:44:35.234Z,100468.97
2023-01-11T08:47:02.866Z,100482.91
2023-01-11T08:49:30.816Z,100477.84
2023-01-11T08:51:57.549Z,100487.84
2023-01-11T08:54:25.119Z,100485.13
2023-01-11T08:56:51.733Z,100473.44
2023-01-11T08:59:19.836Z,100481.03
2023-01-11T09:01:46.522Z,100481.38
2023-01-11T09:04:24.216Z,100487.16
2023-01-11T09:06:52.553Z,100478.66
2023-01-11T09:09:19.053Z,100486.69
2023-01-11T09:11:54.572Z,100482.50
2023-01-11T09:14:21.970Z,100487.31
2023-01-11T09:16:48.907Z,100489.47
2023-01-11T09:19:15.524Z,100485.44
2023-01-11T09:21:42.426Z,100494.34
2023-01-11T09:24:09.098Z,100503.25
2023-01-11T09:26:35.994Z,100495.44
2023-01-11T09:29:02.622Z,100496.44
2023-01-11T09:31:29.242Z,100498.16
2023-01-11T09:33:55.747Z,100495.50
2023-01-11T09:36:27.859Z,100498.69
2023-01-11T09:38:57.438Z,100504.66
2023-01-11T09:41:31.742Z,100501.41
2023-01-11T09:44:15.918Z,100510.00
2023-01-11T09:46:44.399Z,100509.50
2023-01-11T09:49:16.247Z,100513.22
2023-01-11T09:51:43.411Z,100513.75
2023-01-11T09:54:15.920Z,100507.41
2023-01-11T09:56:53.690Z,100512.22
2023-01-11T09:59:46.693Z,100512.75
2023-01-11T10:02:19.531Z,100509.78
2023-01-11T10:05:06.273Z,100514.44
2023-01-11T10:07:46.972Z,100510.44
2023-01-11T10:18:28.388Z,100512.22
2023-01-11T10:19:36.560Z,100494.97
2023-01-11T10:22:09.582Z,100497.63
2023-01-11T10:24:42.261Z,100497.34
2023-01-11T10:27:38.444Z,100506.50
2023-01-11T10:30:32.159Z,100504.06
2023-01-11T10:33:37.922Z,100506.59
2023-01-11T10:36:30.697Z,100504.66
2023-01-11T10:39:13.846Z,100511.69
2023-01-11T10:41:52.501Z,100505.56
2023-01-11T10:44:23.554Z,100504.63
2023-01-11T10:46:52.751Z,100505.22
2023-01-11T10:49:39.587Z,100517.28
2023-01-11T10:52:15.068Z,100517.81
2023-01-11T10:55:00.651Z,100517.03
2023-01-11T10:57:27.120Z,100520.78
2023-01-11T11:07:56.747Z,100528.88
2023-01-11T11:14:48.918Z,100529.03
2023-01-11T11:17:44.965Z,100519.41
2023-01-11T11:20:20.460Z,100516.47
2023-01-11T11:22:58.994Z,100517.50
2023-01-11T11:25:29.574Z,100516.03
2023-01-11T11:32:03.205Z,100526.63
2023-01-11T11:34:55.820Z,100521.81
2023-01-11T11:37:42.517Z,100511.41
2023-01-11T11:40:41.935Z,100515.19
2023-01-11T13:16:14.193Z,100520.66
2023-01-11T13:18:51.508Z,100526.06
2023-01-11T13:21:43.386Z,100525.03
2023-01-11T13:24:30.216Z,100538.78
2023-01-11T13:27:06.051Z,100539.84
2023-01-11T13:29:37.730Z,100524.81
2023-01-11T13:32:06.616Z,100519.97
2023-01-11T13:34:36.733Z,100533.19
2023-01-11T13:37:06.780Z,100532.69
2023-01-11T13:39:47.299Z,100535.69
2023-01-11T13:42:24.970Z,100537.88
2023-01-11T13:45:01.622Z,100546.53
2023-01-11T13:47:31.125Z,100549.75
2023-01-11T13:50:03.783Z,100549.75
2023-01-11T13:52:44.187Z,100556.22
2023-01-11T13:55:24.444Z,100574.75
2023-01-11T13:58:00.788Z,100579.84
2023-01-11T14:00:31.437Z,100588.44
2023-01-11T14:03:03.284Z,100583.63
2023-01-11T14:05:35.215Z,100584.13
2023-01-11T14:08:08.911Z,100592.69
2023-01-11T14:10:38.731Z,100587.06
2023-01-11T14:13:47.571Z,100587.78
2023-01-11T14:16:24.224Z,100587.75
2023-01-11T14:19:01.159Z,100597.44
2023-01-11T14:21:38.364Z,100596.63
2023-01-11T14:24:05.794Z,100606.78
2023-01-11T14:26:51.292Z,100603.81
2023-01-11T14:29:36.385Z,100603.25
2023-01-11T14:32:32.629Z,100612.38
2023-01-11T14:35:17.586Z,100619.59
2023-01-11T14:38:02.968Z,100617.16
2023-01-11T14:40:38.833Z,100623.56
2023-01-11T14:43:24.146Z,100617.09
2023-01-11T14:46:17.271Z,100622.41
2023-01-11T14:48:55.569Z,100630.44
2023-01-11T14:51:32.650Z,100639.59
2023-01-11T14:54:10.799Z,100643.81
2023-01-11T14:56:47.158Z,100655.56
2023-01-11T14:59:22.850Z,100659.28
2023-01-11T15:02:04.926Z,100668.91
2023-01-11T15:04:32.852Z,100678.53
2023-01-11T15:07:00.341Z,100683.56
2023-01-11T15:09:43.898Z,100684.34
2023-01-11T15:12:14.975Z,100681.56
2023-01-11T15:15:01.861Z,100690.88
2023-01-11T15:17:48.196Z,100687.13
2023-01-11T15:20:18.341Z,100697.53
2023-01-11T15:22:45.390Z,100705.59
2023-01-11T15:25:18.190Z,100706.03
2023-01-11T15:27:44.999Z,100709.16
2023-01-11T15:30:44.160Z,100706.88
2023-01-11T15:33:17.218Z,100716.00
2023-01-11T15:36:04.162Z,100708.22
2023-01-11T15:38:43.251Z,100718.44
2023-01-11T15:41:33.981Z,100720.47
2023-01-11T15:44:03.880Z,100718.25
2023-01-11T15:46:55.434Z,100715.31
2023-01-11T15:49:25.025Z,100726.00
2023-01-11T15:52:06.909Z,100729.22
2023-01-11T15:54:36.742Z,100731.63
2023-01-11T15:57:09.471Z,100740.50
2023-01-11T15:59:42.070Z,100750.81
2023-01-11T16:02:14.882Z,100765.53
2023-01-11T16:04:58.929Z,100765.06
2023-01-11T16:07:34.533Z,100774.38
2023-01-11T16:10:20.109Z,100780.00
2023-01-11T16:12:59.703Z,100790.16
2023-01-11T16:15:41.704Z,100789.34
2023-01-11T16:18:13.449Z,100783.91
2023-01-11T16:20:42.858Z,100792.25
2023-01-11T16:23:16.360Z,100796.31
2023-01-11T16:25:43.332Z,100806.78
2023-01-11T16:28:14.708Z,100813.69
2023-01-11T16:30:41.337Z,100814.72
2023-01-11T16:33:17.488Z,100808.81
2023-01-11T16:35:44.156Z,100816.28
2023-01-11T16:38:15.904Z,100830.16
2023-01-11T16:40:45.529Z,100840.31
2023-01-11T16:43:23.276Z,100833.31
2023-01-11T16:45:51.571Z,100843.47
2023-01-11T16:48:21.288Z,100841.53
2023-01-11T16:50:58.073Z,100853.47
2023-01-11T16:53:26.239Z,100853.47
2023-01-11T16:55:56.733Z,100851.38
2023-01-11T16:58:28.749Z,100851.84
2023-01-11T17:00:56.860Z,100859.31
2023-01-11T17:03:24.322Z,100859.81
2023-01-11T17:05:55.358Z,100859.81
2023-01-11T17:08:26.431Z,100853.03
2023-01-11T17:10:54.135Z,100851.91
2023-01-11T17:13:48.057Z,100867.09
2023-01-11T17:16:16.234Z,100862.69
2023-01-11T17:18:43.695Z,100866.91
2023-01-11T17:21:19.312Z,100868.44
2023-01-11T17:23:46.700Z,100874.84
2023-01-11T17:26:16.052Z,100878.34
2023-01-11T17:28:47.259Z,100889.28
2023-01-11T17:31:35.689Z,100901.50
2023-01-11T17:34:08.522Z,100907.94
2023-01-11T17:36:36.300Z,100919.47
2023-01-11T17:39:03.639Z,100918.22
2023-01-11T17:41:48.767Z,100920.34
2023-01-11T17:44:35.614Z,100923.97
2023-01-11T17:47:03.024Z,100922.69
2023-01-11T17:49:31.242Z,100923.66
2023-01-11T17:52:07.307Z,100934.56
2023-01-11T17:54:33.915Z,100936.09
2023-01-11T17:57:01.125Z,100930.41
2023-01-11T17:59:30.915Z,100939.00
2023-01-11T18:02:18.095Z,100934.34
2023-01-11T18:04:44.731Z,100949.81
2023-01-11T18:07:20.121Z,100943.06
2023-01-11T18:09:48.259Z,100948.53
2023-01-11T18:12:18.323Z,100955.97
2023-01-11T18:15:15.209Z,100960.13
2023-01-11T18:17:45.117Z,100964.31
2023-01-11T18:20:18.332Z,100969.22
2023-01-11T18:22:55.174Z,100979.78
2023-01-11T18:25:24.922Z,100984.78
2023-01-11T18:27:54.418Z,100985.69
2023-01-11T18:30:30.242Z,100993.13
2023-01-11T18:32:57.437Z,101002.78
2023-01-11T18:35:24.657Z,101012.56
2023-01-11T18:37:54.952Z,101007.91
2023-01-11T18:40:21.833Z,101013.47
2023-01-11T18:42:49.948Z,101017.91
2023-01-11T18:45:19.143Z,101032.31
2023-01-11T18:47:45.751Z,101029.16
2023-01-11T18:50:13.260Z,101035.19
2023-01-11T18:52:40.256Z,101029.63
2023-01-11T18:55:07.243Z,101034.63
2023-01-11T18:57:33.939Z,101028.94
2023-01-11T19:00:04.390Z,101038.44
2023-01-11T19:02:37.547Z,101036.38
2023-01-11T19:05:05.930Z,101040.06
2023-01-11T19:07:32.602Z,101036.69
2023-01-11T19:09:59.445Z,101045.31
2023-01-11T19:12:26.026Z,101050.31
2023-01-11T19:14:52.677Z,101051.94
2023-01-11T19:17:19.284Z,101062.50
2023-01-11T19:19:46.261Z,101060.88
2023-01-11T19:22:12.955Z,101061.59
2023-01-11T19:24:40.105Z,101067.28
2023-01-11T19:27:06.870Z,101069.28
2023-01-11T19:29:33.783Z,101066.47
2023-01-11T19:32:00.269Z,101062.00
2023-01-11T19:34:26.895Z,101063.97
2023-01-11T19:36:53.473Z,101065.03
2023-01-11T19:39:20.068Z,101062.78
2023-01-11T19:42:00.143Z,101059.09
2023-01-11T19:44:33.691Z,101064.75
2023-01-11T19:47:10.791Z,101060.81
2023-01-11T19:49:38.739Z,101059.19
2023-01-11T19:52:12.034Z,101062.34
2023-01-11T19:54:39.776Z,101067.13
2023-01-11T19:57:08.004Z,101052.22
2023-01-11T19:59:34.573Z,101055.13
2023-01-11T20:02:01.225Z,101061.75
2023-01-11T20:04:27.854Z,101071.31
2023-01-11T20:06:55.500Z,101070.94
2023-01-11T20:09:22.456Z,101067.69
2023-01-11T20:11:49.384Z,101053.19
2023-01-11T20:14:16.839Z,101045.38
2023-01-11T20:16:43.364Z,101061.31
2023-01-11T20:19:09.900Z,101070.34
2023-01-11T20:21:38.703Z,101048.97
2023-01-11T20:24:08.130Z,101054.69
2023-01-11T20:26:34.998Z,101059.22
2023-01-11T20:29:02.181Z,101061.72
2023-01-11T20:31:31.709Z,101061.94
2023-01-11T20:33:59.958Z,101065.06
2023-01-11T20:36:27.216Z,101067.00
2023-01-11T20:38:54.522Z,101072.16
2023-01-11T20:41:40.997Z,101063.19
2023-01-11T20:44:08.016Z,101061.00
2023-01-11T20:46:34.992Z,101055.88
2023-01-11T20:49:01.837Z,101052.97
2023-01-11T20:51:28.447Z,101049.72
2023-01-11T20:53:55.135Z,101053.88
2023-01-11T20:56:21.879Z,101061.75
2023-01-11T20:58:50.972Z,101051.06
2023-01-11T21:01:27.214Z,101050.34
2023-01-11T21:03:54.893Z,101044.19
2023-01-11T21:06:22.356Z,101042.94
2023-01-11T21:08:48.886Z,101035.50
2023-01-11T21:11:15.930Z,101027.03
2023-01-11T21:13:42.426Z,101041.28
2023-01-11T21:16:11.923Z,101031.50
2023-01-11T21:18:39.408Z,101023.38
2023-01-11T21:21:06.064Z,101026.03
2023-01-11T21:23:32.503Z,101029.16
2023-01-11T21:25:59.094Z,101023.81
2023-01-11T21:28:25.585Z,101028.72
2023-01-11T21:31:02.239Z,101036.72
2023-01-11T21:33:29.629Z,101023.00
2023-01-11T21:35:57.511Z,101031.22
2023-01-11T21:38:24.214Z,101023.00
2023-01-11T21:40:50.695Z,101021.28
2023-01-11T21:43:17.288Z,101024.56
2023-01-11T21:45:43.926Z,101012.50
2023-01-11T21:48:10.494Z,101023.19
2023-01-11T21:50:37.038Z,101015.75
2023-01-11T21:53:03.546Z,101021.56
2023-01-11T21:55:30.010Z,101028.53
2023-01-11T21:57:56.564Z,101026.31
2023-01-11T22:00:28.249Z,101037.91
2023-01-11T22:02:56.291Z,101044.72
2023-01-11T22:05:23.672Z,101043.53
2023-01-11T22:07:50.633Z,101033.31
2023-01-11T22:10:17.159Z,101034.22
2023-01-11T22:12:43.727Z,101034.81
2023-01-11T22:15:10.357Z,101037.16
2023-01-11T22:17:36.833Z,101036.72
2023-01-11T22:20:03.683Z,101034.06
2023-01-11T22:22:30.239Z,101040.78
2023-01-11T22:24:56.760Z,101048.00
2023-01-11T22:27:23.276Z,101050.66
2023-01-11T22:29:52.027Z,101046.63
2023-01-11T22:32:18.522Z,101052.97
2023-01-11T22:34:45.138Z,101058.34
2023-01-11T22:37:11.796Z,101062.56
2023-01-11T22:39:40.540Z,101059.56
2023-01-11T22:42:07.643Z,101051.56
2023-01-11T22:44:34.293Z,101047.34
2023-01-11T22:47:00.801Z,101055.69
2023-01-11T22:49:27.474Z,101050.91
2023-01-11T22:51:56.314Z,101046.91
2023-01-11T22:54:23.090Z,101041.88
2023-01-11T22:56:50.222Z,101038.50
2023-01-11T22:59:16.742Z,101037.31
2023-01-11T23:01:43.359Z,101043.91
2023-01-11T23:04:12.367Z,101039.81
2023-01-11T23:06:39.873Z,101042.19
2023-01-11T23:09:07.426Z,101054.50
2023-01-11T23:11:56.211Z,101049.00
2023-01-11T23:14:26.642Z,101046.09
2023-01-11T23:16:53.835Z,101044.44
2023-01-11T23:19:23.231Z,101035.84
2023-01-11T23:21:50.103Z,101047.31
2023-01-11T23:24:17.299Z,101045.63
2023-01-11T23:26:45.140Z,101052.16
2023-01-11T23:29:12.118Z,101043.81
2023-01-11T23:31:38.806Z,101049.75
2023-01-11T23:34:08.082Z,101048.34
2023-01-11T23:36:35.771Z,101043.25
2023-01-11T23:39:08.681Z,101045.91
2023-01-11T23:41:53.965Z,101039.50
2023-01-11T23:44:20.539Z,101036.84
2023-01-11T23:47:05.951Z,101033.59
2023-01-11T23:49:32.460Z,101020.47
2023-01-11T23:51:59.453Z,101016.44
2023-01-11T23:54:27.457Z,101019.50
2023-01-11T23:56:54.518Z,101021.47
2023-01-11T23:59:21.147Z,101015.22
